sensor_id;sensor_type;location;lat;lon;timestamp;P1;durP1;ratioP1;P2;durP2;ratioP2
15358;SDS011;7779;49.596;11.070;2023-03-23T00:01:26;2.70;;;2.10;;
15358;SDS011;7779;49.596;11.070;2023-03-23T00:03:55;4.23;;;2.27;;
15358;SDS011;7779;49.596;11.070;2023-03-23T00:06:26;2.47;;;2.03;;
15358;SDS011;7779;49.596;11.070;2023-03-23T00:08:57;2.37;;;1.90;;
15358;SDS011;7779;49.596;11.070;2023-03-23T00:11:26;2.23;;;2.00;;
15358;SDS011;7779;49.596;11.070;2023-03-23T00:13:54;3.20;;;2.20;;
15358;SDS011;7779;49.596;11.070;2023-03-23T00:16:24;3.07;;;2.00;;
15358;SDS011;7779;49.596;11.070;2023-03-23T00:18:56;3.13;;;2.17;;
15358;SDS011;7779;49.596;11.070;2023-03-23T00:21:45;2.53;;;2.00;;
15358;SDS011;7779;49.596;11.070;2023-03-23T00:24:15;3.73;;;1.93;;
15358;SDS011;7779;49.596;11.070;2023-03-23T00:26:47;2.67;;;2.20;;
15358;SDS011;7779;49.596;11.070;2023-03-23T00:31:44;4.07;;;1.93;;
15358;SDS011;7779;49.596;11.070;2023-03-23T00:34:23;2.73;;;2.07;;
15358;SDS011;7779;49.596;11.070;2023-03-23T00:36:50;3.47;;;2.20;;
15358;SDS011;7779;49.596;11.070;2023-03-23T00:39:22;2.17;;;1.97;;
15358;SDS011;7779;49.596;11.070;2023-03-23T00:41:52;2.10;;;1.87;;
15358;SDS011;7779;49.596;11.070;2023-03-23T00:44:29;4.97;;;2.03;;
15358;SDS011;7779;49.596;11.070;2023-03-23T00:46:57;2.20;;;1.70;;
15358;SDS011;7779;49.596;11.070;2023-03-23T00:49:25;3.53;;;1.97;;
15358;SDS011;7779;49.596;11.070;2023-03-23T00:51:52;2.53;;;1.70;;
15358;SDS011;7779;49.596;11.070;2023-03-23T00:54:20;2.60;;;1.87;;
15358;SDS011;7779;49.596;11.070;2023-03-23T00:56:48;2.20;;;1.77;;
15358;SDS011;7779;49.596;11.070;2023-03-23T00:59:15;1.87;;;1.60;;
15358;SDS011;7779;49.596;11.070;2023-03-23T01:01:43;2.20;;;1.87;;
15358;SDS011;7779;49.596;11.070;2023-03-23T01:04:08;4.30;;;1.60;;
15358;SDS011;7779;49.596;11.070;2023-03-23T01:06:37;2.17;;;1.67;;
15358;SDS011;7779;49.596;11.070;2023-03-23T01:09:06;3.00;;;1.67;;
15358;SDS011;7779;49.596;11.070;2023-03-23T01:11:34;1.80;;;1.63;;
15358;SDS011;7779;49.596;11.070;2023-03-23T01:14:00;2.83;;;1.90;;
15358;SDS011;7779;49.596;11.070;2023-03-23T01:16:26;2.73;;;1.53;;
15358;SDS011;7779;49.596;11.070;2023-03-23T01:18:53;2.63;;;1.77;;
15358;SDS011;7779;49.596;11.070;2023-03-23T01:21:19;1.73;;;1.57;;
15358;SDS011;7779;49.596;11.070;2023-03-23T01:23:46;1.83;;;1.47;;
15358;SDS011;7779;49.596;11.070;2023-03-23T01:26:13;2.10;;;1.57;;
15358;SDS011;7779;49.596;11.070;2023-03-23T01:28:44;3.17;;;1.90;;
15358;SDS011;7779;49.596;11.070;2023-03-23T01:31:12;2.00;;;1.40;;
15358;SDS011;7779;49.596;11.070;2023-03-23T01:33:42;2.57;;;1.90;;
15358;SDS011;7779;49.596;11.070;2023-03-23T01:36:13;2.57;;;1.70;;
15358;SDS011;7779;49.596;11.070;2023-03-23T01:38:43;2.27;;;1.73;;
15358;SDS011;7779;49.596;11.070;2023-03-23T01:41:14;2.47;;;2.03;;
15358;SDS011;7779;49.596;11.070;2023-03-23T01:43:53;2.17;;;1.80;;
15358;SDS011;7779;49.596;11.070;2023-03-23T01:46:24;4.40;;;1.83;;
15358;SDS011;7779;49.596;11.070;2023-03-23T01:48:52;2.93;;;2.00;;
15358;SDS011;7779;49.596;11.070;2023-03-23T01:51:21;2.50;;;1.70;;
15358;SDS011;7779;49.596;11.070;2023-03-23T01:53:54;4.70;;;1.73;;
15358;SDS011;7779;49.596;11.070;2023-03-23T01:56:24;2.23;;;1.83;;
15358;SDS011;7779;49.596;11.070;2023-03-23T01:58:58;2.47;;;1.80;;
15358;SDS011;7779;49.596;11.070;2023-03-23T02:01:24;2.80;;;1.90;;
15358;SDS011;7779;49.596;11.070;2023-03-23T02:03:52;2.80;;;2.03;;
15358;SDS011;7779;49.596;11.070;2023-03-23T02:06:20;2.70;;;1.70;;
15358;SDS011;7779;49.596;11.070;2023-03-23T02:09:22;2.10;;;1.60;;
15358;SDS011;7779;49.596;11.070;2023-03-23T02:11:50;1.80;;;1.70;;
15358;SDS011;7779;49.596;11.070;2023-03-23T02:14:18;2.67;;;1.90;;
15358;SDS011;7779;49.596;11.070;2023-03-23T02:16:54;1.90;;;1.60;;
15358;SDS011;7779;49.596;11.070;2023-03-23T02:24:49;2.53;;;1.60;;
15358;SDS011;7779;49.596;11.070;2023-03-23T02:28:02;1.77;;;1.67;;
15358;SDS011;7779;49.596;11.070;2023-03-23T02:36:23;2.10;;;1.70;;
15358;SDS011;7779;49.596;11.070;2023-03-23T02:39:21;2.20;;;1.70;;
15358;SDS011;7779;49.596;11.070;2023-03-23T02:41:56;2.33;;;1.80;;
15358;SDS011;7779;49.596;11.070;2023-03-23T02:44:29;2.23;;;1.73;;
15358;SDS011;7779;49.596;11.070;2023-03-23T02:46:59;2.13;;;1.73;;
15358;SDS011;7779;49.596;11.070;2023-03-23T02:49:31;2.40;;;1.43;;
15358;SDS011;7779;49.596;11.070;2023-03-23T02:52:02;2.37;;;1.70;;
15358;SDS011;7779;49.596;11.070;2023-03-23T02:54:34;2.10;;;1.67;;
15358;SDS011;7779;49.596;11.070;2023-03-23T02:57:02;2.63;;;1.70;;
15358;SDS011;7779;49.596;11.070;2023-03-23T02:59:30;2.47;;;1.70;;
15358;SDS011;7779;49.596;11.070;2023-03-23T03:02:01;2.10;;;1.70;;
15358;SDS011;7779;49.596;11.070;2023-03-23T03:04:35;1.70;;;1.47;;
15358;SDS011;7779;49.596;11.070;2023-03-23T03:07:15;2.00;;;1.67;;
15358;SDS011;7779;49.596;11.070;2023-03-23T03:21:53;4.13;;;3.13;;
15358;SDS011;7779;49.596;11.070;2023-03-23T03:24:32;5.07;;;2.60;;
15358;SDS011;7779;49.596;11.070;2023-03-23T03:26:58;3.67;;;1.97;;
15358;SDS011;7779;49.596;11.070;2023-03-23T03:29:36;3.10;;;2.00;;
15358;SDS011;7779;49.596;11.070;2023-03-23T03:32:06;2.37;;;1.90;;
15358;SDS011;7779;49.596;11.070;2023-03-23T03:34:40;4.00;;;2.37;;
15358;SDS011;7779;49.596;11.070;2023-03-23T03:37:06;2.37;;;1.70;;
15358;SDS011;7779;49.596;11.070;2023-03-23T03:39:36;1.97;;;1.50;;
15358;SDS011;7779;49.596;11.070;2023-03-23T03:42:03;1.53;;;1.43;;
15358;SDS011;7779;49.596;11.070;2023-03-23T03:44:31;1.67;;;1.20;;
15358;SDS011;7779;49.596;11.070;2023-03-23T03:46:58;3.27;;;1.40;;
15358;SDS011;7779;49.596;11.070;2023-03-23T03:49:24;2.00;;;1.40;;
15358;SDS011;7779;49.596;11.070;2023-03-23T03:51:52;1.73;;;1.30;;
15358;SDS011;7779;49.596;11.070;2023-03-23T03:54:23;2.47;;;1.30;;
15358;SDS011;7779;49.596;11.070;2023-03-23T03:56:48;2.23;;;1.23;;
15358;SDS011;7779;49.596;11.070;2023-03-23T03:59:49;1.10;;;1.00;;
15358;SDS011;7779;49.596;11.070;2023-03-23T04:02:18;1.47;;;1.00;;
15358;SDS011;7779;49.596;11.070;2023-03-23T04:04:46;1.37;;;1.17;;
15358;SDS011;7779;49.596;11.070;2023-03-23T04:07:12;1.87;;;1.27;;
15358;SDS011;7779;49.596;11.070;2023-03-23T04:09:41;1.20;;;1.00;;
15358;SDS011;7779;49.596;11.070;2023-03-23T04:12:13;1.70;;;1.17;;
15358;SDS011;7779;49.596;11.070;2023-03-23T04:14:55;1.00;;;0.90;;
15358;SDS011;7779;49.596;11.070;2023-03-23T04:17:25;1.63;;;1.00;;
15358;SDS011;7779;49.596;11.070;2023-03-23T04:19:52;2.30;;;1.13;;
15358;SDS011;7779;49.596;11.070;2023-03-23T04:22:26;1.20;;;1.00;;
15358;SDS011;7779;49.596;11.070;2023-03-23T04:24:57;1.97;;;1.00;;
15358;SDS011;7779;49.596;11.070;2023-03-23T04:27:27;1.40;;;0.90;;
15358;SDS011;7779;49.596;11.070;2023-03-23T04:29:55;2.20;;;1.20;;
15358;SDS011;7779;49.596;11.070;2023-03-23T04:32:49;1.17;;;1.07;;
15358;SDS011;7779;49.596;11.070;2023-03-23T04:35:21;0.93;;;0.90;;
15358;SDS011;7779;49.596;11.070;2023-03-23T04:38:01;1.10;;;1.00;;
15358;SDS011;7779;49.596;11.070;2023-03-23T04:40:27;1.50;;;1.03;;
15358;SDS011;7779;49.596;11.070;2023-03-23T04:43:11;1.83;;;1.20;;
15358;SDS011;7779;49.596;11.070;2023-03-23T04:46:12;1.10;;;0.90;;
15358;SDS011;7779;49.596;11.070;2023-03-23T04:48:43;1.50;;;1.00;;
15358;SDS011;7779;49.596;11.070;2023-03-23T04:51:16;1.40;;;0.90;;
15358;SDS011;7779;49.596;11.070;2023-03-23T04:53:45;2.10;;;1.27;;
15358;SDS011;7779;49.596;11.070;2023-03-23T04:56:11;0.87;;;0.77;;
15358;SDS011;7779;49.596;11.070;2023-03-23T04:58:42;2.07;;;1.07;;
15358;SDS011;7779;49.596;11.070;2023-03-23T05:01:31;1.80;;;0.90;;
15358;SDS011;7779;49.596;11.070;2023-03-23T05:04:25;1.83;;;1.00;;
15358;SDS011;7779;49.596;11.070;2023-03-23T05:07:16;1.43;;;0.90;;
15358;SDS011;7779;49.596;11.070;2023-03-23T05:09:48;1.33;;;1.03;;
15358;SDS011;7779;49.596;11.070;2023-03-23T05:12:18;1.67;;;0.93;;
15358;SDS011;7779;49.596;11.070;2023-03-23T05:14:52;1.60;;;0.97;;
15358;SDS011;7779;49.596;11.070;2023-03-23T05:17:20;2.67;;;0.77;;
15358;SDS011;7779;49.596;11.070;2023-03-23T05:19:51;1.57;;;0.83;;
15358;SDS011;7779;49.596;11.070;2023-03-23T05:22:49;1.23;;;1.13;;
15358;SDS011;7779;49.596;11.070;2023-03-23T05:25:26;1.20;;;0.93;;
15358;SDS011;7779;49.596;11.070;2023-03-23T05:27:58;2.40;;;0.97;;
15358;SDS011;7779;49.596;11.070;2023-03-23T05:30:39;0.73;;;0.70;;
15358;SDS011;7779;49.596;11.070;2023-03-23T05:33:06;1.63;;;0.73;;
15358;SDS011;7779;49.596;11.070;2023-03-23T05:35:50;1.33;;;0.90;;
15358;SDS011;7779;49.596;11.070;2023-03-23T05:38:25;1.00;;;0.90;;
15358;SDS011;7779;49.596;11.070;2023-03-23T05:40:52;1.63;;;0.80;;
15358;SDS011;7779;49.596;11.070;2023-03-23T05:43:25;0.83;;;0.83;;
15358;SDS011;7779;49.596;11.070;2023-03-23T05:46:10;1.90;;;1.10;;
15358;SDS011;7779;49.596;11.070;2023-03-23T05:48:37;1.00;;;0.90;;
15358;SDS011;7779;49.596;11.070;2023-03-23T05:51:08;2.03;;;0.90;;
15358;SDS011;7779;49.596;11.070;2023-03-23T05:53:38;1.00;;;0.80;;
15358;SDS011;7779;49.596;11.070;2023-03-23T05:56:04;1.20;;;0.97;;
15358;SDS011;7779;49.596;11.070;2023-03-23T05:58:50;1.67;;;0.90;;
15358;SDS011;7779;49.596;11.070;2023-03-23T06:01:17;0.80;;;0.80;;
15358;SDS011;7779;49.596;11.070;2023-03-23T06:03:43;0.97;;;0.93;;
15358;SDS011;7779;49.596;11.070;2023-03-23T06:06:17;0.90;;;0.80;;
15358;SDS011;7779;49.596;11.070;2023-03-23T06:09:02;1.10;;;1.00;;
15358;SDS011;7779;49.596;11.070;2023-03-23T06:11:48;1.57;;;1.00;;
15358;SDS011;7779;49.596;11.070;2023-03-23T06:14:32;1.10;;;0.80;;
15358;SDS011;7779;49.596;11.070;2023-03-23T06:16:59;0.77;;;0.77;;
15358;SDS011;7779;49.596;11.070;2023-03-23T06:19:25;1.20;;;0.90;;
15358;SDS011;7779;49.596;11.070;2023-03-23T06:21:58;1.20;;;1.00;;
15358;SDS011;7779;49.596;11.070;2023-03-23T06:24:44;1.43;;;0.83;;
15358;SDS011;7779;49.596;11.070;2023-03-23T06:27:13;1.60;;;1.20;;
15358;SDS011;7779;49.596;11.070;2023-03-23T06:29:41;1.50;;;1.00;;
15358;SDS011;7779;49.596;11.070;2023-03-23T06:32:11;2.27;;;1.00;;
15358;SDS011;7779;49.596;11.070;2023-03-23T06:34:40;0.90;;;0.80;;
15358;SDS011;7779;49.596;11.070;2023-03-23T06:37:18;1.73;;;0.93;;
15358;SDS011;7779;49.596;11.070;2023-03-23T06:39:51;2.13;;;0.90;;
15358;SDS011;7779;49.596;11.070;2023-03-23T06:42:24;1.23;;;0.90;;
15358;SDS011;7779;49.596;11.070;2023-03-23T06:45:05;1.73;;;0.90;;
15358;SDS011;7779;49.596;11.070;2023-03-23T06:47:33;1.80;;;1.00;;
15358;SDS011;7779;49.596;11.070;2023-03-23T06:49:59;1.23;;;1.00;;
15358;SDS011;7779;49.596;11.070;2023-03-23T06:52:27;1.47;;;1.00;;
15358;SDS011;7779;49.596;11.070;2023-03-23T06:54:52;0.97;;;0.90;;
15358;SDS011;7779;49.596;11.070;2023-03-23T06:57:20;1.43;;;1.00;;
15358;SDS011;7779;49.596;11.070;2023-03-23T06:59:47;1.67;;;1.13;;
15358;SDS011;7779;49.596;11.070;2023-03-23T07:02:13;3.87;;;1.10;;
15358;SDS011;7779;49.596;11.070;2023-03-23T07:04:41;1.23;;;0.90;;
15358;SDS011;7779;49.596;11.070;2023-03-23T07:07:20;1.70;;;1.10;;
15358;SDS011;7779;49.596;11.070;2023-03-23T07:09:57;5.50;;;2.43;;
15358;SDS011;7779;49.596;11.070;2023-03-23T07:12:23;3.53;;;1.73;;
15358;SDS011;7779;49.596;11.070;2023-03-23T07:14:50;2.80;;;1.80;;
15358;SDS011;7779;49.596;11.070;2023-03-23T07:17:16;2.60;;;1.67;;
15358;SDS011;7779;49.596;11.070;2023-03-23T07:20:04;2.50;;;1.60;;
15358;SDS011;7779;49.596;11.070;2023-03-23T07:22:32;2.83;;;1.30;;
15358;SDS011;7779;49.596;11.070;2023-03-23T07:25:06;1.50;;;1.40;;
15358;SDS011;7779;49.596;11.070;2023-03-23T07:27:51;2.53;;;1.27;;
15358;SDS011;7779;49.596;11.070;2023-03-23T07:30:17;1.80;;;1.00;;
15358;SDS011;7779;49.596;11.070;2023-03-23T07:32:42;1.30;;;1.07;;
15358;SDS011;7779;49.596;11.070;2023-03-23T07:35:09;1.97;;;1.27;;
15358;SDS011;7779;49.596;11.070;2023-03-23T07:37:58;1.73;;;1.30;;
15358;SDS011;7779;49.596;11.070;2023-03-23T07:40:24;1.50;;;0.87;;
15358;SDS011;7779;49.596;11.070;2023-03-23T07:42:57;2.17;;;1.13;;
15358;SDS011;7779;49.596;11.070;2023-03-23T07:45:31;4.80;;;3.27;;
15358;SDS011;7779;49.596;11.070;2023-03-23T07:47:57;3.70;;;2.80;;
15358;SDS011;7779;49.596;11.070;2023-03-23T07:50:24;5.47;;;2.70;;
15358;SDS011;7779;49.596;11.070;2023-03-23T07:52:56;4.90;;;3.00;;
15358;SDS011;7779;49.596;11.070;2023-03-23T07:55:26;10.33;;;6.13;;
15358;SDS011;7779;49.596;11.070;2023-03-23T07:58:11;22.50;;;11.10;;
15358;SDS011;7779;49.596;11.070;2023-03-23T08:00:42;18.63;;;9.70;;
15358;SDS011;7779;49.596;11.070;2023-03-23T08:03:09;12.03;;;7.20;;
15358;SDS011;7779;49.596;11.070;2023-03-23T08:05:53;12.93;;;6.90;;
15358;SDS011;7779;49.596;11.070;2023-03-23T08:08:46;13.87;;;7.50;;
15358;SDS011;7779;49.596;11.070;2023-03-23T08:11:30;6.93;;;4.07;;
15358;SDS011;7779;49.596;11.070;2023-03-23T08:14:15;6.70;;;4.37;;
15358;SDS011;7779;49.596;11.070;2023-03-23T08:16:57;7.53;;;4.23;;
15358;SDS011;7779;49.596;11.070;2023-03-23T08:19:42;10.40;;;5.53;;
15358;SDS011;7779;49.596;11.070;2023-03-23T08:22:31;16.30;;;9.70;;
15358;SDS011;7779;49.596;11.070;2023-03-23T08:25:23;15.60;;;10.07;;
15358;SDS011;7779;49.596;11.070;2023-03-23T08:28:05;15.20;;;9.50;;
15358;SDS011;7779;49.596;11.070;2023-03-23T08:30:50;12.53;;;7.57;;
15358;SDS011;7779;49.596;11.070;2023-03-23T08:33:47;10.33;;;6.30;;
15358;SDS011;7779;49.596;11.070;2023-03-23T08:36:32;9.47;;;6.40;;
15358;SDS011;7779;49.596;11.070;2023-03-23T08:39:13;10.43;;;5.43;;
15358;SDS011;7779;49.596;11.070;2023-03-23T08:42:12;7.27;;;4.57;;
15358;SDS011;7779;49.596;11.070;2023-03-23T08:44:59;5.97;;;4.23;;
15358;SDS011;7779;49.596;11.070;2023-03-23T08:47:40;5.70;;;3.10;;
15358;SDS011;7779;49.596;11.070;2023-03-23T08:50:15;7.27;;;3.70;;
15358;SDS011;7779;49.596;11.070;2023-03-23T08:52:52;8.07;;;3.67;;
15358;SDS011;7779;49.596;11.070;2023-03-23T08:55:42;8.03;;;3.80;;
15358;SDS011;7779;49.596;11.070;2023-03-23T08:58:37;4.63;;;2.57;;
15358;SDS011;7779;49.596;11.070;2023-03-23T09:01:12;3.00;;;2.10;;
15358;SDS011;7779;49.596;11.070;2023-03-23T09:03:51;2.83;;;1.87;;
15358;SDS011;7779;49.596;11.070;2023-03-23T09:06:37;4.27;;;1.73;;
15358;SDS011;7779;49.596;11.070;2023-03-23T09:09:03;3.13;;;1.77;;
15358;SDS011;7779;49.596;11.070;2023-03-23T09:11:35;2.73;;;1.80;;
15358;SDS011;7779;49.596;11.070;2023-03-23T09:14:02;2.50;;;1.70;;
15358;SDS011;7779;49.596;11.070;2023-03-23T09:16:29;1.73;;;1.57;;
15358;SDS011;7779;49.596;11.070;2023-03-23T09:18:56;3.10;;;1.50;;
15358;SDS011;7779;49.596;11.070;2023-03-23T09:21:25;3.87;;;1.67;;
15358;SDS011;7779;49.596;11.070;2023-03-23T09:23:53;3.00;;;1.63;;
15358;SDS011;7779;49.596;11.070;2023-03-23T09:26:23;2.70;;;1.43;;
15358;SDS011;7779;49.596;11.070;2023-03-23T09:28:51;1.50;;;1.30;;
15358;SDS011;7779;49.596;11.070;2023-03-23T09:31:17;2.30;;;1.67;;
15358;SDS011;7779;49.596;11.070;2023-03-23T09:33:47;2.67;;;1.30;;
15358;SDS011;7779;49.596;11.070;2023-03-23T09:36:17;1.73;;;1.30;;
15358;SDS011;7779;49.596;11.070;2023-03-23T09:38:46;3.10;;;1.47;;
15358;SDS011;7779;49.596;11.070;2023-03-23T09:46:48;1.50;;;1.30;;
15358;SDS011;7779;49.596;11.070;2023-03-23T09:49:50;2.43;;;1.60;;
15358;SDS011;7779;49.596;11.070;2023-03-23T09:52:44;1.43;;;1.30;;
15358;SDS011;7779;49.596;11.070;2023-03-23T09:55:19;1.83;;;1.37;;
15358;SDS011;7779;49.596;11.070;2023-03-23T09:57:51;2.03;;;1.60;;
15358;SDS011;7779;49.596;11.070;2023-03-23T10:03:22;1.67;;;1.40;;
15358;SDS011;7779;49.596;11.070;2023-03-23T10:06:02;2.13;;;1.40;;
15358;SDS011;7779;49.596;11.070;2023-03-23T10:08:32;1.80;;;1.27;;
15358;SDS011;7779;49.596;11.070;2023-03-23T10:16:55;1.20;;;1.10;;
15358;SDS011;7779;49.596;11.070;2023-03-23T10:19:35;2.43;;;1.40;;
15358;SDS011;7779;49.596;11.070;2023-03-23T10:22:31;1.83;;;1.40;;
15358;SDS011;7779;49.596;11.070;2023-03-23T10:30:42;2.63;;;1.93;;
15358;SDS011;7779;49.596;11.070;2023-03-23T10:41:34;3.40;;;1.53;;
15358;SDS011;7779;49.596;11.070;2023-03-23T10:44:00;2.57;;;1.40;;
15358;SDS011;7779;49.596;11.070;2023-03-23T10:46:43;3.80;;;1.60;;
15358;SDS011;7779;49.596;11.070;2023-03-23T10:49:15;1.60;;;1.50;;
15358;SDS011;7779;49.596;11.070;2023-03-23T10:51:50;1.50;;;1.40;;
15358;SDS011;7779;49.596;11.070;2023-03-23T10:55:07;1.17;;;1.07;;
15358;SDS011;7779;49.596;11.070;2023-03-23T10:57:35;2.33;;;1.30;;
15358;SDS011;7779;49.596;11.070;2023-03-23T11:02:40;1.93;;;1.00;;
15358;SDS011;7779;49.596;11.070;2023-03-23T11:05:18;2.93;;;1.17;;
15358;SDS011;7779;49.596;11.070;2023-03-23T11:07:53;2.37;;;1.10;;
15358;SDS011;7779;49.596;11.070;2023-03-23T11:10:23;1.33;;;0.90;;
15358;SDS011;7779;49.596;11.070;2023-03-23T11:12:53;1.47;;;0.90;;
15358;SDS011;7779;49.596;11.070;2023-03-23T11:15:33;0.83;;;0.70;;
15358;SDS011;7779;49.596;11.070;2023-03-23T11:18:09;0.70;;;0.70;;
15358;SDS011;7779;49.596;11.070;2023-03-23T11:20:39;1.13;;;0.60;;
15358;SDS011;7779;49.596;11.070;2023-03-23T11:23:42;1.40;;;0.80;;
15358;SDS011;7779;49.596;11.070;2023-03-23T11:26:16;1.23;;;0.60;;
15358;SDS011;7779;49.596;11.070;2023-03-23T11:29:05;1.20;;;0.73;;
15358;SDS011;7779;49.596;11.070;2023-03-23T11:31:44;2.17;;;0.90;;
15358;SDS011;7779;49.596;11.070;2023-03-23T11:35:03;0.77;;;0.60;;
15358;SDS011;7779;49.596;11.070;2023-03-23T11:37:25;1.00;;;0.90;;
15358;SDS011;7779;49.596;11.070;2023-03-23T11:40:03;2.83;;;0.90;;
15358;SDS011;7779;49.596;11.070;2023-03-23T11:42:47;0.80;;;0.70;;
15358;SDS011;7779;49.596;11.070;2023-03-23T11:48:11;0.93;;;0.83;;
15358;SDS011;7779;49.596;11.070;2023-03-23T11:53:56;1.53;;;0.70;;
15358;SDS011;7779;49.596;11.070;2023-03-23T11:56:33;1.13;;;0.50;;
15358;SDS011;7779;49.596;11.070;2023-03-23T11:59:02;0.80;;;0.70;;
15358;SDS011;7779;49.596;11.070;2023-03-23T12:04:28;1.30;;;0.70;;
15358;SDS011;7779;49.596;11.070;2023-03-23T12:12:42;1.07;;;0.90;;
15358;SDS011;7779;49.596;11.070;2023-03-23T12:15:30;1.03;;;0.93;;
15358;SDS011;7779;49.596;11.070;2023-03-23T12:24:24;1.23;;;0.80;;
15358;SDS011;7779;49.596;11.070;2023-03-23T12:33:27;0.67;;;0.50;;
15358;SDS011;7779;49.596;11.070;2023-03-23T12:42:22;1.43;;;0.80;;
15358;SDS011;7779;49.596;11.070;2023-03-23T12:48:13;1.00;;;0.60;;
15358;SDS011;7779;49.596;11.070;2023-03-23T12:53:58;0.70;;;0.60;;
15358;SDS011;7779;49.596;11.070;2023-03-23T12:56:49;1.80;;;0.90;;
15358;SDS011;7779;49.596;11.070;2023-03-23T12:59:26;1.50;;;0.70;;
15358;SDS011;7779;49.596;11.070;2023-03-23T13:02:10;0.70;;;0.60;;
15358;SDS011;7779;49.596;11.070;2023-03-23T13:04:44;1.10;;;0.63;;
15358;SDS011;7779;49.596;11.070;2023-03-23T13:07:25;0.70;;;0.70;;
15358;SDS011;7779;49.596;11.070;2023-03-23T13:09:58;1.93;;;0.50;;
15358;SDS011;7779;49.596;11.070;2023-03-23T13:12:38;0.50;;;0.50;;
15358;SDS011;7779;49.596;11.070;2023-03-23T13:18:04;0.70;;;0.53;;
15358;SDS011;7779;49.596;11.070;2023-03-23T13:21:09;0.77;;;0.77;;
15358;SDS011;7779;49.596;11.070;2023-03-23T13:24:23;0.60;;;0.60;;
15358;SDS011;7779;49.596;11.070;2023-03-23T13:26:49;0.53;;;0.53;;
15358;SDS011;7779;49.596;11.070;2023-03-23T13:29:19;0.67;;;0.67;;
15358;SDS011;7779;49.596;11.070;2023-03-23T13:31:49;0.87;;;0.60;;
15358;SDS011;7779;49.596;11.070;2023-03-23T13:34:18;1.50;;;0.67;;
15358;SDS011;7779;49.596;11.070;2023-03-23T13:39:30;0.80;;;0.70;;
15358;SDS011;7779;49.596;11.070;2023-03-23T13:42:22;0.70;;;0.60;;
15358;SDS011;7779;49.596;11.070;2023-03-23T13:49:55;2.03;;;0.70;;
15358;SDS011;7779;49.596;11.070;2023-03-23T14:05:39;0.97;;;0.80;;
15358;SDS011;7779;49.596;11.070;2023-03-23T14:08:12;1.40;;;0.90;;
15358;SDS011;7779;49.596;11.070;2023-03-23T14:11:08;1.50;;;0.80;;
15358;SDS011;7779;49.596;11.070;2023-03-23T14:16:37;2.23;;;1.00;;
15358;SDS011;7779;49.596;11.070;2023-03-23T14:19:18;1.60;;;0.90;;
15358;SDS011;7779;49.596;11.070;2023-03-23T14:21:53;1.10;;;1.00;;
15358;SDS011;7779;49.596;11.070;2023-03-23T14:24:26;0.80;;;0.73;;
15358;SDS011;7779;49.596;11.070;2023-03-23T14:29:30;1.63;;;0.97;;
15358;SDS011;7779;49.596;11.070;2023-03-23T14:31:57;1.10;;;0.90;;
15358;SDS011;7779;49.596;11.070;2023-03-23T14:34:25;1.00;;;0.90;;
15358;SDS011;7779;49.596;11.070;2023-03-23T14:36:54;0.93;;;0.93;;
15358;SDS011;7779;49.596;11.070;2023-03-23T14:39:28;0.97;;;0.70;;
15358;SDS011;7779;49.596;11.070;2023-03-23T14:42:01;1.20;;;0.80;;
15358;SDS011;7779;49.596;11.070;2023-03-23T14:44:37;1.10;;;1.00;;
15358;SDS011;7779;49.596;11.070;2023-03-23T14:47:09;2.70;;;0.90;;
15358;SDS011;7779;49.596;11.070;2023-03-23T14:49:44;1.20;;;0.90;;
15358;SDS011;7779;49.596;11.070;2023-03-23T14:52:12;0.80;;;0.73;;
15358;SDS011;7779;49.596;11.070;2023-03-23T14:54:41;1.70;;;1.00;;
15358;SDS011;7779;49.596;11.070;2023-03-23T14:57:19;1.50;;;0.90;;
15358;SDS011;7779;49.596;11.070;2023-03-23T14:59:54;1.37;;;1.07;;
15358;SDS011;7779;49.596;11.070;2023-03-23T15:05:03;1.47;;;0.87;;
15358;SDS011;7779;49.596;11.070;2023-03-23T15:08:05;1.17;;;1.00;;
15358;SDS011;7779;49.596;11.070;2023-03-23T15:10:40;1.47;;;1.10;;
15358;SDS011;7779;49.596;11.070;2023-03-23T15:13:09;1.33;;;0.90;;
15358;SDS011;7779;49.596;11.070;2023-03-23T15:15:37;1.27;;;0.90;;
15358;SDS011;7779;49.596;11.070;2023-03-23T15:18:03;1.20;;;1.03;;
15358;SDS011;7779;49.596;11.070;2023-03-23T15:20:31;1.00;;;0.90;;
15358;SDS011;7779;49.596;11.070;2023-03-23T15:23:17;1.00;;;0.90;;
15358;SDS011;7779;49.596;11.070;2023-03-23T15:25:53;1.53;;;0.90;;
15358;SDS011;7779;49.596;11.070;2023-03-23T15:28:27;1.87;;;0.77;;
15358;SDS011;7779;49.596;11.070;2023-03-23T15:30:57;1.53;;;0.60;;
15358;SDS011;7779;49.596;11.070;2023-03-23T15:33:38;1.30;;;0.90;;
15358;SDS011;7779;49.596;11.070;2023-03-23T15:36:14;1.20;;;1.10;;
15358;SDS011;7779;49.596;11.070;2023-03-23T15:38:43;1.83;;;1.23;;
15358;SDS011;7779;49.596;11.070;2023-03-23T15:41:24;1.63;;;1.07;;
15358;SDS011;7779;49.596;11.070;2023-03-23T15:43:53;1.00;;;0.90;;
15358;SDS011;7779;49.596;11.070;2023-03-23T15:46:27;1.57;;;0.90;;
15358;SDS011;7779;49.596;11.070;2023-03-23T15:51:23;1.43;;;1.27;;
15358;SDS011;7779;49.596;11.070;2023-03-23T15:53:53;2.43;;;1.10;;
15358;SDS011;7779;49.596;11.070;2023-03-23T15:56:21;1.77;;;1.37;;
15358;SDS011;7779;49.596;11.070;2023-03-23T15:58:48;2.30;;;1.33;;
15358;SDS011;7779;49.596;11.070;2023-03-23T16:01:19;1.77;;;1.40;;
15358;SDS011;7779;49.596;11.070;2023-03-23T16:03:51;2.67;;;1.90;;
15358;SDS011;7779;49.596;11.070;2023-03-23T16:06:22;3.50;;;2.00;;
15358;SDS011;7779;49.596;11.070;2023-03-23T16:08:50;3.23;;;1.47;;
15358;SDS011;7779;49.596;11.070;2023-03-23T16:11:19;1.50;;;1.40;;
15358;SDS011;7779;49.596;11.070;2023-03-23T16:13:45;1.50;;;1.20;;
15358;SDS011;7779;49.596;11.070;2023-03-23T16:16:15;2.03;;;1.20;;
15358;SDS011;7779;49.596;11.070;2023-03-23T16:18:53;1.80;;;1.27;;
15358;SDS011;7779;49.596;11.070;2023-03-23T16:21:19;1.83;;;1.20;;
15358;SDS011;7779;49.596;11.070;2023-03-23T16:23:46;1.20;;;1.10;;
15358;SDS011;7779;49.596;11.070;2023-03-23T16:26:12;0.97;;;0.97;;
15358;SDS011;7779;49.596;11.070;2023-03-23T16:28:40;1.10;;;1.00;;
15358;SDS011;7779;49.596;11.070;2023-03-23T16:31:07;3.07;;;1.33;;
15358;SDS011;7779;49.596;11.070;2023-03-23T16:33:33;1.10;;;1.00;;
15358;SDS011;7779;49.596;11.070;2023-03-23T16:35:59;3.17;;;1.60;;
15358;SDS011;7779;49.596;11.070;2023-03-23T16:38:24;1.90;;;0.90;;
15358;SDS011;7779;49.596;11.070;2023-03-23T16:40:51;1.87;;;1.30;;
15358;SDS011;7779;49.596;11.070;2023-03-23T16:43:16;3.20;;;1.90;;
15358;SDS011;7779;49.596;11.070;2023-03-23T16:45:43;2.97;;;1.80;;
15358;SDS011;7779;49.596;11.070;2023-03-23T16:48:14;2.77;;;1.57;;
15358;SDS011;7779;49.596;11.070;2023-03-23T16:50:41;3.20;;;1.70;;
15358;SDS011;7779;49.596;11.070;2023-03-23T16:53:09;1.50;;;1.30;;
15358;SDS011;7779;49.596;11.070;2023-03-23T16:55:35;5.63;;;3.33;;
15358;SDS011;7779;49.596;11.070;2023-03-23T16:58:02;7.00;;;4.23;;
15358;SDS011;7779;49.596;11.070;2023-03-23T17:00:29;6.90;;;4.33;;
15358;SDS011;7779;49.596;11.070;2023-03-23T17:02:55;4.47;;;3.03;;
15358;SDS011;7779;49.596;11.070;2023-03-23T17:05:25;4.80;;;4.00;;
15358;SDS011;7779;49.596;11.070;2023-03-23T17:07:53;4.30;;;2.97;;
15358;SDS011;7779;49.596;11.070;2023-03-23T17:10:20;3.10;;;2.63;;
15358;SDS011;7779;49.596;11.070;2023-03-23T17:12:48;3.43;;;2.10;;
15358;SDS011;7779;49.596;11.070;2023-03-23T17:15:14;2.60;;;1.97;;
15358;SDS011;7779;49.596;11.070;2023-03-23T17:17:40;1.83;;;1.70;;
15358;SDS011;7779;49.596;11.070;2023-03-23T17:20:07;1.80;;;1.50;;
15358;SDS011;7779;49.596;11.070;2023-03-23T17:22:34;2.23;;;1.50;;
15358;SDS011;7779;49.596;11.070;2023-03-23T17:25:01;1.97;;;1.33;;
15358;SDS011;7779;49.596;11.070;2023-03-23T17:27:29;2.33;;;1.30;;
15358;SDS011;7779;49.596;11.070;2023-03-23T17:29:55;1.13;;;1.03;;
15358;SDS011;7779;49.596;11.070;2023-03-23T17:32:21;3.50;;;1.40;;
15358;SDS011;7779;49.596;11.070;2023-03-23T17:34:48;2.67;;;1.23;;
15358;SDS011;7779;49.596;11.070;2023-03-23T17:37:15;2.50;;;1.10;;
15358;SDS011;7779;49.596;11.070;2023-03-23T17:39:41;2.87;;;1.73;;